Izei Lorenzo

Jefe de ojeadores - Las Palmas
4 Dic 2027
Sábado
Continuar

Personalidad

Adaptabilidad (7) Ambición (15) Controversia (18) Lealtad (20) Presión (4) Profesionalismo (6) Deportividad (10) Temperamento (7)

Perfil

Estilo de dirección Democrático
Licencia Continental Pro
Determinación 8
Gestión de personas 13
Motivación 5
Disciplina 10
Satisfacción laboral
65%
Fatiga
0%
Cargo Jefe de ojeadores
Salario 26.7K p/s
Contrato 14.03.2029

Rendimiento

Comportamiento Bueno
Efectividad del entrenamiento
29%
Desarrollo de jugadores
35%
Prevención de lesiones
35%
Implementación táctica
60%

Eventos recientes

Asistió a una reunión de captación ahora
Asistió a una reunión de captación ahora
Asistió a una reunión de captación ahora
Asistió a una reunión de captación ahora
Recomendó un objetivo de fichaje ahora
Asistió a una reunión de captación ahora
Evaluó a un jugador ahora
Evaluó a un jugador ahora

Actualmente siguiendo

246
Jugador Club Estado Habilidad Confianza Observado Última observación Último voto
Alexander Díaz Deportivo Riestra Activo 125 / 116 40% 11 03.12.2027 -
Franco Ayunta Temperley Activo 108 / 110 40% 3 03.12.2027 -
Juan Peñaloza Alianza Petrolera Activo 114 / 115 40% 4 03.12.2027 -
Alexis Cuello San Lorenzo Activo 128 / 126 40% 5 02.12.2027 -
Ramiro Ruiz Rodríguez Atlético Tucumán Activo 127 / 124 40% 5 02.12.2027 -
Camilo Rey Domenech Racing Club Activo 123 / 128 40% 4 02.12.2027 -
Bryan Caicedo Leones Activo 103 / 103 40% 4 02.12.2027 -
Patrick Preciado Deportivo Pasto Activo 104 / 114 40% 1 02.12.2027 -
Tiziano Noriega Tristán Suárez Activo 95 / 97 40% 1 02.12.2027 -
Gonzalo Flores Almirante Brown Activo 108 / 113 40% 4 30.11.2027 -
Alejo Cruz Juventud Activo 122 / 118 40% 2 30.11.2027 -
Martín Ojeda Orlando City Activo 140 / 141 40% 1 30.11.2027 -
Santiago Sanchez Santa Fe Activo 134 / 133 40% 5 29.11.2027 -
Agustín Hausch Caracas Activo 118 / 120 40% 3 29.11.2027 -
Kelvin Flórez Junior Activo 117 / 119 40% 1 28.11.2027 -
Luca Franco Arsenal Activo 112 / 107 40% 3 27.11.2027 -
Joel Medina Independiente Activo 111 / 119 40% 2 27.11.2027 -
Mateo Silvetti Inter Miami CF Activo 127 / 121 40% 2 27.11.2027 -
Iván Barbona Colón Activo 92 / 101 40% 2 27.11.2027 -
Santiago Sala Güemes Activo 117 / 108 40% 7 26.11.2027 -
Nicolás Cordero Aldosivi Activo 116 / 119 40% 8 26.11.2027 -
Thiago Calone All Boys Activo 112 / 114 40% 6 24.11.2027 -
Marco Miori Alvarado Activo 110 / 112 40% 5 24.11.2027 -
Luca Langoni New England Revolution Activo 136 / 130 40% 1 24.11.2027 -
Enzo González Defensores Activo 113 / 106 40% 6 23.11.2027 -
Agustín Medina Lanús Activo 112 / 123 40% 6 23.11.2027 -
Nicolás Azambuja Danubio Activo 114 / 128 40% 3 23.11.2027 -
Ruyery Blanco Alianza Petrolera Activo 117 / 113 40% 2 23.11.2027 -
Mateo Peralta Danubio Activo 112 / 117 40% 1 23.11.2027 -
Oskar Spiten-Nysæter Molde Activo 113 / 123 40% 2 22.11.2027 -
Lucio Castillo Colegiales Activo 108 / 107 40% 3 20.11.2027 -
Felipe Obradovich Gimnasia La Plata Activo 111 / 115 40% 5 19.11.2027 -
Diogo Guzmán Montevideo City Torque Activo 119 / 118 40% 5 19.11.2027 -
Augusto Berrondo Tristán Suárez Activo 108 / 111 40% 2 19.11.2027 -
Luca Martínez Dupuy Godoy Cruz Activo 125 / 121 40% 2 19.11.2027 -
Mauro Carrizo Atlético Tucumán Activo 99 / 107 40% 2 19.11.2027 -
Fernando Mimbacas Juventud Activo 113 / 115 40% 3 17.11.2027 -
Enzo Avaro Mitre Activo 118 / 112 40% 4 17.11.2027 -
Sunday Aniebet Enyimba Activo 98 / 103 40% 4 17.11.2027 -
Felix Mosquera Deportes Quindio Activo 95 / 98 40% 4 17.11.2027 -
Tiziano Dornell Almagro Activo 115 / 118 40% 9 14.11.2027 -
Marcos Camarda Santiago Wanderers Activo 112 / 112 40% 1 14.11.2027 -
Juan Rocca Gimnasia y Tiro Activo 111 / 109 40% 10 13.11.2027 -
Alejandro Piedrahita Deportivo Pereira Activo 124 / 127 40% 2 13.11.2027 -
Jeriel De Santis Caracas Activo 107 / 106 40% 1 13.11.2027 -
Tomás Conechny Racing Club Activo 131 / 124 40% 1 12.11.2027 -
Mateo Pérez Curci Independiente Activo 113 / 122 40% 3 10.11.2027 -
Facundo Balatti Penarol Activo 105 / 110 40% 1 10.11.2027 -
Valentino Huertas Morón Activo 97 / 108 40% 1 07.11.2027 -
Francisco Bonfiglio Boston River Activo 110 / 108 40% 1 07.11.2027 -
Gastón Verón Argentinos Juniors Activo 123 / 124 40% 4 06.11.2027 -
Mario Galeano Independiente Activo 117 / 114 40% 1 06.11.2027 -
Lisandro Cabrera Maipú Activo 113 / 114 40% 1 04.11.2027 -
Carlos Gugenheim Almirante Brown Activo 116 / 114 40% 2 02.11.2027 -
Diego García Malmo FF Activo 133 / 116 40% 1 02.11.2027 -
Tomás Fernández Aldosivi Activo 120 / 118 40% 1 01.11.2027 -
Thiago Szkaluba Santiago Wanderers Activo 89 / 104 40% 2 31.10.2027 -
Bautista Carboni Defensores Unidos Activo 106 / 111 40% 1 31.10.2027 -
Luciano Strey Patronato Activo 91 / 99 40% 1 31.10.2027 -
Gonzalo Gelini Boca Juniors Activo 120 / 126 40% 3 30.10.2027 -
Dilan Godoy Vélez Activo 106 / 118 40% 5 28.10.2027 -
Matías Acevedo Racing Club Activo 109 / 118 40% 3 28.10.2027 -
Mateo Aguiar Defensa y Justicia Negociando 117 / 120 40% 2 27.10.2027 -
Giovanni Baroni San Lorenzo Activo 113 / 118 40% 1 27.10.2027 -
Luka Andrade Montevideo City Torque Activo 100 / 111 40% 1 26.10.2027 -
Celías Ingenthron Platense Activo 114 / 120 40% 2 24.10.2027 -
Sergio Castillo Cortulua Activo 99 / 113 40% 5 24.10.2027 -
Wilfred Correa Caracas Activo 96 / 98 40% 2 22.10.2027 -
Tahiel Peralta Vélez Activo 114 / 121 40% 2 21.10.2027 -
Nicolás Borsotti Defensores Activo 102 / 103 40% 2 21.10.2027 -
Chimobi Igwilo Rangers International Activo 83 / 98 40% 1 20.10.2027 -
Giovanni Cantizano Rosario Central Activo 109 / 120 40% 1 19.10.2027 -
Dylan Salvo Defensores Unidos Activo 97 / 104 40% 4 17.10.2027 -
Halam Loboa Independiente Medellin Activo 115 / 127 40% 2 14.10.2027 -
Nahuel Leivas Montevideo City Torque Activo 106 / 106 40% 2 13.10.2027 -
Emiliano Zambrano Gimnasia y Esgrima Activo 97 / 99 40% 1 13.10.2027 -
Lucas Duré Montevideo City Torque Activo 103 / 106 40% 1 12.10.2027 -
Esteban de Lima Tacuarembo Activo 88 / 99 40% 1 11.10.2027 -
Valentino Acuña Newell's Old Boys Activo 115 / 117 40% 4 10.10.2027 -
Ian Subiabre River Plate Activo 121 / 133 40% 2 10.10.2027 -
Abubakar Garba Nasarawa United Activo 85 / 98 40% 1 08.10.2027 -
Sebastián Ramírez America de Cali Activo 102 / 116 40% 2 04.10.2027 -
Jhon Renteria Sarmiento Activo 109 / 114 40% 1 04.10.2027 -
Nazareno Roselli Defensa y Justicia Activo 113 / 118 40% 2 12.09.2027 -
Inti Borghetto Patronato Activo 97 / 93 40% 1 12.09.2027 -
Teo Rodríguez Pagano San Lorenzo Activo 122 / 126 40% 1 12.09.2027 -
Santiago Espíndola River Plate Activo 101 / 116 40% 1 10.09.2027 -
Octavio Ontivero Lanús Activo 112 / 112 40% 1 10.09.2027 -
Juan Giménez Rosario Central Activo 109 / 125 40% 1 09.09.2027 -
Mbekezeli Mbokazi Chicago Fire Activo 117 / 132 40% 1 09.09.2027 -
Sheriff Amuda Shooting Stars Activo 96 / 98 40% 1 08.09.2027 -
Matías Argüello Libertad Activo 104 / 103 40% 1 08.09.2027 -
Lautaro Dufur Rentistas Activo 101 / 108 40% 1 08.09.2027 -
Lucio Ferrari Talleres Activo 96 / 108 40% 1 06.09.2027 -
Olaniyi Saheed Kwara United Activo 91 / 105 40% 1 30.08.2027 -
Agustín De la Cuesta Argentinos Juniors Activo 110 / 114 40% 1 30.08.2027 -
Facundo Gulli San Lorenzo Activo 126 / 127 40% 4 23.08.2027 -
Joel Canchimbo Atletico Nacional Activo 114 / 119 40% 1 05.07.2027 -
Dylan Salvo Defensores Unidos Perdido 96 / 103 40% 1 05.07.2027 -
Sindre Walle Egeli Nottingham Forest Activo 127 / 137 40% 1 05.07.2027 -
Martin Cedidla Torino Informe listo 131 / 132 66% 1 01.06.2027 -
Alpha Touré FC Metz Activo 116 / 122 40% 2 31.05.2027 -
Yusi Alavés Activo 123 / 130 40% 3 30.05.2027 Observar
João Teixeira Porto Activo 108 / 119 40% 4 25.05.2027 -
Christos Mouzakitis Hull City Activo 132 / 135 40% 1 25.05.2027 -
Emile Smith Rowe Fulham Activo 146 / 148 40% 5 24.05.2027 -
Kevin Schade Brentford Activo 150 / 151 40% 3 24.05.2027 -
Pau Víctor Estrela da Amadora Activo 146 / 136 40% 8 22.05.2027 Observar
Pedro de la Vega Leganés Perdido 133 / 132 90% 2 22.05.2027 -
Jon Garro Real Sociedad Activo 93 / 97 67% 5 22.05.2027 Observar
Chemsdine Talbi Sunderland Activo 139 / 144 40% 2 20.05.2027 -
Mikkel Damsgaard Brentford Activo 153 / 142 40% 1 20.05.2027 -
Héctor Fort Real Sociedad Activo 136 / 143 40% 1 20.05.2027 -
Dylan Gorosito Boca Juniors Activo 115 / 120 40% 1 20.05.2027 -
Facundo Infante Talleres Activo 89 / 93 40% 1 20.05.2027 -
Gonzalo Fulham Activo 149 / 144 40% 11 17.05.2027 -
Enzo Loiodice KAA Gent Activo 135 / 127 40% 4 17.05.2027 -
Jonathan Dubasin Osasuna Activo 144 / 146 40% 3 16.05.2027 -
Jeon Jin-Woo Sheffield Wednesday Activo 136 / 128 40% 1 16.05.2027 -
Álex Valle Como Activo 133 / 137 40% 6 14.05.2027 -
Aimar Osasuna Activo 153 / 145 40% 6 13.05.2027 -
Dango Ouattara Brentford Activo 149 / 142 40% 2 13.05.2027 -
Mario Soriano Deportivo La Coruña Activo 130 / 135 40% 1 13.05.2027 -
Gaspar Gijón Activo 145 / 138 40% 6 12.05.2027 Observar
David Larrubia Málaga Activo 134 / 130 40% 4 12.05.2027 -
Pablo Torre Mallorca Activo 151 / 148 40% 1 12.05.2027 -
Andrés Martín Racing Santander Activo 138 / 134 40% 5 11.05.2027 -
Erick Sánchez Valladolid Activo 142 / 136 40% 8 11.05.2027 -
Christantus Uche Getafe Activo 145 / 144 40% 2 09.05.2027 -
Roberto Fernández Braga Activo 141 / 145 40% 11 07.05.2027 Observar
Finn Azaz Southampton Activo 136 / 126 40% 2 06.05.2027 -
Gladson Sulemana Liberty Professionals Activo 94 / 105 40% 1 06.05.2027 -
Julio Enciso Ipswich Town Activo 144 / 144 40% 3 05.05.2027 -
Fer López Wolverhampton Activo 138 / 137 40% 2 05.05.2027 -
Pol Lozano Espanyol Activo 141 / 136 40% 3 04.05.2027 -
Urko Izeta Cádiz Activo 128 / 135 40% 4 02.05.2027 -
Kevin Fulham Activo 149 / 147 40% 4 02.05.2027 -
Santi García Gil Vicente Activo 133 / 131 40% 3 30.04.2027 -
Iván Romero Levante Activo 141 / 138 40% 2 30.04.2027 -
Juanlu Bournemouth Activo 153 / 146 40% 2 25.04.2027 -
Abel Ruiz Girona Activo 141 / 142 40% 2 20.04.2027 -
Riquelme Thompson-Jones Shrewsbury Town Activo 101 / 117 40% 2 18.04.2027 -
Enzo Cardozo Virtus Entella Activo 103 / 118 40% 1 18.04.2027 -
Lucas Jetten Cambuur Activo 108 / 117 40% 1 18.04.2027 -
Omar El Hilali Espanyol Activo 157 / 151 40% 4 13.04.2027 -
Tyrhys Dolan Espanyol Activo 137 / 134 40% 3 13.04.2027 -
Nico Melamed Almería Activo 135 / 136 40% 2 08.04.2027 -
Helinho Toluca Activo 124 / 126 40% 1 08.04.2027 -
Loum Tchaouna Coventry City Activo 132 / 141 40% 1 07.04.2027 -
Toni Fruk Valladolid Activo 139 / 131 40% 1 05.04.2027 -
Carlos Vicente Udinese Activo 138 / 141 40% 1 05.04.2027 -
César Huerta Pumas UNAM Activo 127 / 119 40% 2 04.04.2027 -
Carlos Álvarez Club America Activo 139 / 140 40% 5 03.04.2027 -
Samuel Lucero Defensa y Justicia Activo 113 / 124 40% 4 31.03.2027 -
José Pachuca Puebla Activo 115 / 118 40% 3 31.03.2027 -
Pau Navarro Villarreal Activo 140 / 147 40% 1 28.03.2027 -
Ezequiel Bullaude Santos Laguna Activo 130 / 125 40% 1 26.03.2027 -
Louis Leroux FC Nantes Activo 121 / 126 40% 2 25.03.2027 -
Sam Curtis Swindon Town Activo 95 / 109 40% 1 21.03.2027 -
Toni Tamarit Alverca Activo 121 / 120 40% 2 19.03.2027 -
Jofre Torrents Ajax Activo 118 / 132 40% 1 19.03.2027 -
Diego Lainez Tigres Activo 129 / 130 40% 1 19.03.2027 -
Yussif Saidu Zaragoza Activo 119 / 123 40% 1 15.03.2027 -
Santiago Fernández Eibar Activo 120 / 127 40% 1 15.03.2027 -
Brian Gutiérrez Guadalajara Activo 128 / 134 40% 1 04.03.2027 -
Jonathan De Irastorza Levante Activo 124 / 127 40% 1 04.03.2027 -
Caleb Yirenkyi Coventry City Activo 129 / 137 40% 1 03.03.2027 -
Mao Hosoya Manchester City Negociando 134 / 135 67% 1 01.01.2027 -
Sampson Dweh Charleroi Activo 133 / 134 66% 1 01.01.2027 Aprobar
Adnan Carrasco FC Nantes Negociando 151 / 156 64% 1 01.01.2027 -
Felipe Peña Biafore Lanús Activo 124 / 125 40% 2 30.12.2026 -
Christian Krasnodar Activo 134 / 129 40% 1 30.12.2026 -
Ramón Valladolid Activo 125 / 129 40% 1 29.12.2026 -
Marco Pellegrino Boca Juniors Activo 129 / 128 40% 1 28.12.2026 -
Guille Rosas Gijón Activo 134 / 134 40% 1 28.12.2026 -
Marco Di Cesare Racing Club Activo 124 / 130 40% 1 28.12.2026 -
Antonio Blanco Alavés Activo 139 / 139 40% 1 27.12.2026 -
Franco Romero Toluca Activo 124 / 124 40% 1 27.12.2026 -
Bojan Kovačević Cádiz Activo 133 / 132 40% 1 27.12.2026 -
Santiago Núñez Estudiantes Activo 131 / 127 40% 2 26.12.2026 -
Joaquín García Vélez Activo 123 / 123 40% 1 26.12.2026 -
Nazareno Colombo Racing Club Activo 129 / 122 40% 2 23.12.2026 -
Manu Morlanes Mallorca Activo 134 / 131 40% 2 23.12.2026 -
Adrien Truffert Bournemouth Activo 147 / 148 40% 1 23.12.2026 -
Alejandro Pozo Ipswich Town Activo 122 / 120 40% 1 22.12.2026 -
Francisco Álvarez Argentinos Juniors Activo 120 / 126 40% 1 19.12.2026 -
Gastón Benedetti Estudiantes Activo 130 / 128 40% 3 18.12.2026 -
Facundo Zabala Independiente Activo 129 / 127 40% 1 18.12.2026 -
Pedro Vite Pumas UNAM Activo 125 / 118 40% 1 18.12.2026 -
Federico Navarro Rosario Central Activo 122 / 126 40% 1 16.12.2026 -
Santiago Segovia Rosario Central Activo 109 / 114 40% 2 12.12.2026 -
Bobby Clark Derby County Activo 119 / 125 40% 1 11.12.2026 -
Leandro Lozano Boca Juniors Activo 127 / 127 40% 1 11.12.2026 -
Matías Fernández-Pardo Newcastle United Activo 142 / 145 40% 2 09.12.2026 -
Fabrizio Sartori Independiente Rivadavia Activo 112 / 115 40% 1 08.12.2026 -
Thiago Acosta River Plate Activo 108 / 119 40% 3 01.12.2026 -
Elías Torres Racing Club Activo 126 / 117 40% 1 01.12.2026 -
Max Svensson Penafiel Activo 109 / 111 40% 1 01.12.2026 -
Jan Virgili Club Brugge Activo 131 / 133 40% 1 01.12.2026 -
Tomás Aranda Boca Juniors Activo 109 / 122 40% 1 30.11.2026 -
Lautaro Gordillo Colegiales Activo 107 / 110 40% 3 29.11.2026 -
Mauro Molina Estudiantes Activo 114 / 108 40% 1 29.11.2026 -
Igor Jesus Nottingham Forest Activo 146 / 143 40% 1 27.11.2026 -
Matías Giménez Rojas Argentinos Juniors Activo 128 / 119 40% 3 24.11.2026 -
Florián Monzón Atlas Activo 134 / 129 40% 3 23.11.2026 -
Pablo Rodríguez Lech Activo 135 / 120 40% 1 22.11.2026 -
Santiago Apa All Boys Activo 114 / 108 40% 2 20.11.2026 -
Marcos Machado Mitre Activo 109 / 112 40% 2 20.11.2026 -
Juan Cruz Zurbriggen San Telmo Activo 105 / 104 40% 1 20.11.2026 -
Ignacio Russo Tigre Activo 132 / 127 40% 4 19.11.2026 -
Nicolás Molina Temperley Activo 107 / 104 40% 2 18.11.2026 -
Alberto Soro Dinamo Bucharest Activo 119 / 112 40% 1 16.11.2026 -
Franco Fagúndez Estudiantes Activo 122 / 114 40% 3 11.11.2026 -
Tomás González Unión de Santa Fe Activo 112 / 119 40% 2 08.11.2026 -
Misael Sosa Godoy Cruz Activo 118 / 114 40% 1 07.11.2026 -
Sebastián Cocimano Nueva Chicago Activo 117 / 112 40% 2 06.11.2026 -
Omar Campos Cruz Azul Activo 124 / 118 40% 1 06.11.2026 -
Tomás Silva Platense Activo 121 / 122 40% 1 05.11.2026 -
Franco Minerva Platense Activo 113 / 126 40% 5 04.11.2026 -
Lucas Besozzi Lanús Activo 119 / 122 40% 1 28.10.2026 -
Ezequiel Almirón Estudiantes Activo 112 / 111 40% 1 27.10.2026 -
Fabricio Rojas Gimnasia y Tiro Activo 107 / 110 40% 3 23.10.2026 -
Eugenio Olivera Talleres Activo 106 / 101 40% 1 21.10.2026 -
Renzo Reynaga Patronato Activo 104 / 106 40% 1 19.10.2026 -
Lautaro Mora Huracán Activo 100 / 111 40% 1 13.10.2026 -
Sergio Barreto Pachuca Activo 121 / 137 40% 2 11.10.2026 -
Ramiro Hernandes Belgrano Activo 117 / 127 40% 1 11.10.2026 -
Vicente Poggi Godoy Cruz Activo 121 / 128 40% 1 11.10.2026 -
Ilaix Moriba Celta Activo 141 / 155 40% 1 11.10.2026 -
Juan Pablo Arango Talleres Activo 94 / 103 40% 2 06.10.2026 -
Lucas Richarte Temperley Activo 98 / 109 40% 2 30.09.2026 -
Facundo Kalinger Huracán Activo 100 / 106 40% 1 30.09.2026 -
Arda Güler Real Madrid Activo 144 / 147 40% 1 29.09.2026 -
Jerónimo Russo Newell's Old Boys Activo 92 / 109 40% 1 27.09.2026 -
Agustín Venezia Iquique Activo 114 / 116 40% 1 21.09.2026 -
Xavier Biscayzacú Sporting CP Activo 118 / 130 40% 1 21.09.2026 -
Pedro Porro Tottenham Activo 139 / 145 40% 2 19.09.2026 -
Favio Cabral Mitre Activo 117 / 115 40% 1 17.09.2026 -
Juan Miranda Bologna Activo 137 / 134 40% 1 16.09.2026 -
César Ibáñez Huracán Activo 118 / 124 40% 1 11.09.2026 -
Agustín Paz Progreso Activo 115 / 118 40% 1 08.09.2026 -
Maximiliano Rodríguez Huachipato Activo 120 / 112 40% 1 07.09.2026 -
Carles Gil New England Revolution Activo 131 / 127 40% 1 04.08.2026 -
Mauricio Asenjo Los Andes Activo 111 / 118 40% 1 04.08.2026 -
Enzo Copetti Rosario Central Activo 118 / 129 40% 1 04.08.2026 -
Alan Forneris Racing Club Activo 105 / 118 40% 1 04.08.2026 -